sensor_id;sensor_type;location;lat;lon;timestamp;P1;durP1;ratioP1;P2;durP2;ratioP2
56567;SDS011;42456;49.956;20.004;2024-01-25T00:00:39;7.00;;;2.30;;
56567;SDS011;42456;49.956;20.004;2024-01-25T00:03:06;9.10;;;2.80;;
56567;SDS011;42456;49.956;20.004;2024-01-25T00:05:33;10.00;;;2.80;;
56567;SDS011;42456;49.956;20.004;2024-01-25T00:08:00;9.00;;;2.50;;
56567;SDS011;42456;49.956;20.004;2024-01-25T00:10:27;7.10;;;2.10;;
56567;SDS011;42456;49.956;20.004;2024-01-25T00:12:54;7.00;;;2.30;;
56567;SDS011;42456;49.956;20.004;2024-01-25T00:15:21;7.50;;;2.50;;
56567;SDS011;42456;49.956;20.004;2024-01-25T00:17:48;9.00;;;2.40;;
56567;SDS011;42456;49.956;20.004;2024-01-25T00:20:16;7.70;;;2.50;;
56567;SDS011;42456;49.956;20.004;2024-01-25T00:22:43;6.60;;;2.20;;
56567;SDS011;42456;49.956;20.004;2024-01-25T00:25:10;6.70;;;2.30;;
56567;SDS011;42456;49.956;20.004;2024-01-25T00:27:37;9.00;;;2.90;;
56567;SDS011;42456;49.956;20.004;2024-01-25T00:30:04;9.40;;;2.90;;
56567;SDS011;42456;49.956;20.004;2024-01-25T00:32:32;8.30;;;2.40;;
56567;SDS011;42456;49.956;20.004;2024-01-25T00:34:58;7.50;;;2.30;;
56567;SDS011;42456;49.956;20.004;2024-01-25T00:37:26;10.30;;;2.80;;
56567;SDS011;42456;49.956;20.004;2024-01-25T00:39:54;6.20;;;2.50;;
56567;SDS011;42456;49.956;20.004;2024-01-25T00:42:21;11.90;;;3.10;;
56567;SDS011;42456;49.956;20.004;2024-01-25T00:44:53;11.40;;;3.00;;
56567;SDS011;42456;49.956;20.004;2024-01-25T00:47:20;8.50;;;3.10;;
56567;SDS011;42456;49.956;20.004;2024-01-25T00:49:47;10.90;;;2.60;;
56567;SDS011;42456;49.956;20.004;2024-01-25T00:52:15;10.20;;;2.70;;
56567;SDS011;42456;49.956;20.004;2024-01-25T00:54:42;10.50;;;2.80;;
56567;SDS011;42456;49.956;20.004;2024-01-25T00:57:10;7.30;;;2.40;;
56567;SDS011;42456;49.956;20.004;2024-01-25T00:59:37;8.60;;;2.70;;
56567;SDS011;42456;49.956;20.004;2024-01-25T01:02:04;14.40;;;3.70;;
56567;SDS011;42456;49.956;20.004;2024-01-25T01:04:35;6.20;;;2.10;;
56567;SDS011;42456;49.956;20.004;2024-01-25T01:07:13;7.20;;;2.40;;
56567;SDS011;42456;49.956;20.004;2024-01-25T01:09:41;5.30;;;2.10;;
56567;SDS011;42456;49.956;20.004;2024-01-25T01:12:09;9.40;;;2.40;;
56567;SDS011;42456;49.956;20.004;2024-01-25T01:14:35;7.50;;;2.50;;
56567;SDS011;42456;49.956;20.004;2024-01-25T01:17:02;8.20;;;2.20;;
56567;SDS011;42456;49.956;20.004;2024-01-25T01:19:29;10.00;;;2.70;;
56567;SDS011;42456;49.956;20.004;2024-01-25T01:21:56;6.60;;;2.10;;
56567;SDS011;42456;49.956;20.004;2024-01-25T01:24:23;8.20;;;2.30;;
56567;SDS011;42456;49.956;20.004;2024-01-25T01:26:50;6.20;;;2.10;;
56567;SDS011;42456;49.956;20.004;2024-01-25T01:29:17;8.10;;;2.50;;
56567;SDS011;42456;49.956;20.004;2024-01-25T01:31:44;10.10;;;3.30;;
56567;SDS011;42456;49.956;20.004;2024-01-25T01:34:11;6.30;;;2.00;;
56567;SDS011;42456;49.956;20.004;2024-01-25T01:36:40;10.20;;;2.40;;
56567;SDS011;42456;49.956;20.004;2024-01-25T01:39:07;6.40;;;2.20;;
56567;SDS011;42456;49.956;20.004;2024-01-25T01:41:34;8.30;;;2.70;;
56567;SDS011;42456;49.956;20.004;2024-01-25T01:44:01;9.20;;;2.20;;
56567;SDS011;42456;49.956;20.004;2024-01-25T01:49:07;7.90;;;2.10;;
56567;SDS011;42456;49.956;20.004;2024-01-25T01:51:38;8.50;;;2.60;;
56567;SDS011;42456;49.956;20.004;2024-01-25T01:54:07;7.40;;;2.30;;
56567;SDS011;42456;49.956;20.004;2024-01-25T01:56:34;7.60;;;2.20;;
56567;SDS011;42456;49.956;20.004;2024-01-25T01:59:02;6.50;;;2.00;;
56567;SDS011;42456;49.956;20.004;2024-01-25T02:01:32;8.80;;;2.00;;
56567;SDS011;42456;49.956;20.004;2024-01-25T02:03:59;6.90;;;1.90;;
56567;SDS011;42456;49.956;20.004;2024-01-25T02:06:26;7.00;;;2.50;;
56567;SDS011;42456;49.956;20.004;2024-01-25T02:08:54;7.00;;;2.20;;
56567;SDS011;42456;49.956;20.004;2024-01-25T02:11:25;7.60;;;1.90;;
56567;SDS011;42456;49.956;20.004;2024-01-25T02:13:52;6.00;;;1.80;;
56567;SDS011;42456;49.956;20.004;2024-01-25T02:16:19;5.10;;;2.20;;
56567;SDS011;42456;49.956;20.004;2024-01-25T02:18:47;5.40;;;2.40;;
56567;SDS011;42456;49.956;20.004;2024-01-25T02:21:15;8.40;;;2.30;;
56567;SDS011;42456;49.956;20.004;2024-01-25T02:23:42;5.80;;;2.10;;
56567;SDS011;42456;49.956;20.004;2024-01-25T02:26:09;12.10;;;2.80;;
56567;SDS011;42456;49.956;20.004;2024-01-25T02:28:36;8.90;;;2.00;;
56567;SDS011;42456;49.956;20.004;2024-01-25T02:31:04;5.80;;;1.90;;
56567;SDS011;42456;49.956;20.004;2024-01-25T02:33:30;5.10;;;1.80;;
56567;SDS011;42456;49.956;20.004;2024-01-25T02:35:58;5.00;;;1.90;;
56567;SDS011;42456;49.956;20.004;2024-01-25T02:38:25;8.20;;;2.00;;
56567;SDS011;42456;49.956;20.004;2024-01-25T02:40:52;8.20;;;2.40;;
56567;SDS011;42456;49.956;20.004;2024-01-25T02:45:49;6.00;;;1.90;;
56567;SDS011;42456;49.956;20.004;2024-01-25T02:48:17;8.90;;;2.20;;
56567;SDS011;42456;49.956;20.004;2024-01-25T02:50:44;8.20;;;1.70;;
56567;SDS011;42456;49.956;20.004;2024-01-25T02:53:11;4.60;;;1.70;;
56567;SDS011;42456;49.956;20.004;2024-01-25T02:55:38;5.50;;;1.80;;
56567;SDS011;42456;49.956;20.004;2024-01-25T02:58:05;6.00;;;1.90;;
56567;SDS011;42456;49.956;20.004;2024-01-25T03:00:32;6.50;;;1.60;;
56567;SDS011;42456;49.956;20.004;2024-01-25T03:02:59;6.50;;;1.50;;
56567;SDS011;42456;49.956;20.004;2024-01-25T03:05:26;7.50;;;1.60;;
56567;SDS011;42456;49.956;20.004;2024-01-25T03:07:53;5.90;;;1.50;;
56567;SDS011;42456;49.956;20.004;2024-01-25T03:10:20;6.50;;;2.20;;
56567;SDS011;42456;49.956;20.004;2024-01-25T03:12:47;8.20;;;1.80;;
56567;SDS011;42456;49.956;20.004;2024-01-25T03:15:14;4.70;;;1.50;;
56567;SDS011;42456;49.956;20.004;2024-01-25T03:17:42;6.40;;;1.80;;
56567;SDS011;42456;49.956;20.004;2024-01-25T03:20:10;6.40;;;2.00;;
56567;SDS011;42456;49.956;20.004;2024-01-25T03:22:37;4.50;;;1.70;;
56567;SDS011;42456;49.956;20.004;2024-01-25T03:25:04;6.20;;;1.70;;
56567;SDS011;42456;49.956;20.004;2024-01-25T03:27:31;8.20;;;2.00;;
56567;SDS011;42456;49.956;20.004;2024-01-25T03:29:59;10.30;;;2.50;;
56567;SDS011;42456;49.956;20.004;2024-01-25T03:32:26;5.50;;;1.70;;
56567;SDS011;42456;49.956;20.004;2024-01-25T03:34:54;8.40;;;1.80;;
56567;SDS011;42456;49.956;20.004;2024-01-25T03:37:21;6.80;;;1.80;;
56567;SDS011;42456;49.956;20.004;2024-01-25T03:39:48;7.60;;;1.80;;
56567;SDS011;42456;49.956;20.004;2024-01-25T03:42:15;4.40;;;1.70;;
56567;SDS011;42456;49.956;20.004;2024-01-25T03:44:43;5.20;;;1.80;;
56567;SDS011;42456;49.956;20.004;2024-01-25T03:47:11;5.50;;;1.40;;
56567;SDS011;42456;49.956;20.004;2024-01-25T03:49:38;6.30;;;2.10;;
56567;SDS011;42456;49.956;20.004;2024-01-25T03:52:05;6.60;;;1.80;;
56567;SDS011;42456;49.956;20.004;2024-01-25T03:54:33;10.30;;;2.10;;
56567;SDS011;42456;49.956;20.004;2024-01-25T03:57:00;7.90;;;1.80;;
56567;SDS011;42456;49.956;20.004;2024-01-25T03:59:27;8.30;;;1.60;;
56567;SDS011;42456;49.956;20.004;2024-01-25T04:01:54;5.20;;;1.50;;
56567;SDS011;42456;49.956;20.004;2024-01-25T04:04:20;5.80;;;2.00;;
56567;SDS011;42456;49.956;20.004;2024-01-25T04:06:48;4.80;;;1.70;;
56567;SDS011;42456;49.956;20.004;2024-01-25T04:09:15;6.50;;;1.80;;
56567;SDS011;42456;49.956;20.004;2024-01-25T04:11:42;8.70;;;2.10;;
56567;SDS011;42456;49.956;20.004;2024-01-25T04:14:08;6.80;;;1.70;;
56567;SDS011;42456;49.956;20.004;2024-01-25T04:16:36;6.80;;;2.00;;
56567;SDS011;42456;49.956;20.004;2024-01-25T04:19:02;5.20;;;1.70;;
56567;SDS011;42456;49.956;20.004;2024-01-25T04:21:30;7.80;;;1.90;;
56567;SDS011;42456;49.956;20.004;2024-01-25T04:23:57;6.50;;;1.60;;
56567;SDS011;42456;49.956;20.004;2024-01-25T04:26:24;10.10;;;2.30;;
56567;SDS011;42456;49.956;20.004;2024-01-25T04:28:51;6.10;;;1.90;;
56567;SDS011;42456;49.956;20.004;2024-01-25T04:31:18;7.20;;;1.90;;
56567;SDS011;42456;49.956;20.004;2024-01-25T04:33:46;7.80;;;1.90;;
56567;SDS011;42456;49.956;20.004;2024-01-25T04:36:14;6.30;;;2.00;;
56567;SDS011;42456;49.956;20.004;2024-01-25T04:38:42;8.20;;;1.90;;
56567;SDS011;42456;49.956;20.004;2024-01-25T04:41:09;7.60;;;2.10;;
56567;SDS011;42456;49.956;20.004;2024-01-25T04:43:36;8.60;;;2.10;;
56567;SDS011;42456;49.956;20.004;2024-01-25T04:46:03;9.00;;;2.10;;
56567;SDS011;42456;49.956;20.004;2024-01-25T04:48:31;7.90;;;2.10;;
56567;SDS011;42456;49.956;20.004;2024-01-25T04:50:59;4.70;;;1.80;;
56567;SDS011;42456;49.956;20.004;2024-01-25T04:53:26;6.80;;;2.10;;
56567;SDS011;42456;49.956;20.004;2024-01-25T04:55:56;7.40;;;1.90;;
56567;SDS011;42456;49.956;20.004;2024-01-25T04:58:23;8.80;;;2.30;;
56567;SDS011;42456;49.956;20.004;2024-01-25T05:00:51;9.30;;;2.40;;
56567;SDS011;42456;49.956;20.004;2024-01-25T05:03:19;8.90;;;2.20;;
56567;SDS011;42456;49.956;20.004;2024-01-25T05:05:47;8.20;;;2.00;;
56567;SDS011;42456;49.956;20.004;2024-01-25T05:08:14;8.00;;;2.20;;
56567;SDS011;42456;49.956;20.004;2024-01-25T05:10:41;7.60;;;2.10;;
56567;SDS011;42456;49.956;20.004;2024-01-25T05:13:08;7.00;;;1.90;;
56567;SDS011;42456;49.956;20.004;2024-01-25T05:15:36;6.60;;;1.80;;
56567;SDS011;42456;49.956;20.004;2024-01-25T05:18:03;8.30;;;1.40;;
56567;SDS011;42456;49.956;20.004;2024-01-25T05:20:31;7.30;;;1.80;;
56567;SDS011;42456;49.956;20.004;2024-01-25T05:23:01;4.30;;;1.90;;
56567;SDS011;42456;49.956;20.004;2024-01-25T05:25:29;6.70;;;1.70;;
56567;SDS011;42456;49.956;20.004;2024-01-25T05:27:57;5.80;;;1.60;;
56567;SDS011;42456;49.956;20.004;2024-01-25T05:30:25;6.40;;;1.70;;
56567;SDS011;42456;49.956;20.004;2024-01-25T05:32:52;7.80;;;1.90;;
56567;SDS011;42456;49.956;20.004;2024-01-25T05:35:22;5.10;;;1.90;;
56567;SDS011;42456;49.956;20.004;2024-01-25T05:37:50;5.70;;;1.80;;
56567;SDS011;42456;49.956;20.004;2024-01-25T05:40:17;7.40;;;2.10;;
56567;SDS011;42456;49.956;20.004;2024-01-25T05:42:45;9.70;;;2.40;;
56567;SDS011;42456;49.956;20.004;2024-01-25T05:45:12;6.70;;;2.00;;
56567;SDS011;42456;49.956;20.004;2024-01-25T05:47:39;7.20;;;1.90;;
56567;SDS011;42456;49.956;20.004;2024-01-25T05:50:06;8.60;;;2.10;;
56567;SDS011;42456;49.956;20.004;2024-01-25T05:52:34;5.40;;;2.00;;
56567;SDS011;42456;49.956;20.004;2024-01-25T05:55:06;9.70;;;2.50;;
56567;SDS011;42456;49.956;20.004;2024-01-25T05:57:35;6.90;;;2.00;;
56567;SDS011;42456;49.956;20.004;2024-01-25T06:00:03;6.70;;;2.20;;
56567;SDS011;42456;49.956;20.004;2024-01-25T06:02:32;6.70;;;1.80;;
56567;SDS011;42456;49.956;20.004;2024-01-25T06:04:59;7.80;;;2.10;;
56567;SDS011;42456;49.956;20.004;2024-01-25T06:07:27;11.40;;;2.40;;
56567;SDS011;42456;49.956;20.004;2024-01-25T06:09:54;5.80;;;1.80;;
56567;SDS011;42456;49.956;20.004;2024-01-25T06:12:22;8.00;;;2.00;;
56567;SDS011;42456;49.956;20.004;2024-01-25T06:14:49;8.40;;;2.40;;
56567;SDS011;42456;49.956;20.004;2024-01-25T06:17:20;8.70;;;2.40;;
56567;SDS011;42456;49.956;20.004;2024-01-25T06:19:48;8.10;;;1.90;;
56567;SDS011;42456;49.956;20.004;2024-01-25T06:22:16;9.00;;;2.10;;
56567;SDS011;42456;49.956;20.004;2024-01-25T06:24:43;6.60;;;2.10;;
56567;SDS011;42456;49.956;20.004;2024-01-25T06:27:11;7.00;;;2.00;;
56567;SDS011;42456;49.956;20.004;2024-01-25T06:29:38;7.70;;;2.40;;
56567;SDS011;42456;49.956;20.004;2024-01-25T06:32:05;8.10;;;2.10;;
56567;SDS011;42456;49.956;20.004;2024-01-25T06:34:39;8.10;;;2.10;;
56567;SDS011;42456;49.956;20.004;2024-01-25T06:37:06;7.40;;;2.40;;
56567;SDS011;42456;49.956;20.004;2024-01-25T06:39:33;6.20;;;1.90;;
56567;SDS011;42456;49.956;20.004;2024-01-25T06:42:01;10.20;;;3.10;;
56567;SDS011;42456;49.956;20.004;2024-01-25T06:44:27;9.30;;;2.10;;
56567;SDS011;42456;49.956;20.004;2024-01-25T06:46:54;8.90;;;2.90;;
56567;SDS011;42456;49.956;20.004;2024-01-25T06:49:21;6.40;;;2.10;;
56567;SDS011;42456;49.956;20.004;2024-01-25T06:51:48;7.70;;;2.10;;
56567;SDS011;42456;49.956;20.004;2024-01-25T06:54:15;6.20;;;2.00;;
56567;SDS011;42456;49.956;20.004;2024-01-25T06:56:42;10.80;;;2.60;;
56567;SDS011;42456;49.956;20.004;2024-01-25T06:59:09;7.50;;;2.40;;
56567;SDS011;42456;49.956;20.004;2024-01-25T07:01:37;10.80;;;2.70;;
56567;SDS011;42456;49.956;20.004;2024-01-25T07:04:04;12.40;;;3.70;;
56567;SDS011;42456;49.956;20.004;2024-01-25T07:06:32;7.40;;;2.40;;
56567;SDS011;42456;49.956;20.004;2024-01-25T07:08:59;6.30;;;2.00;;
56567;SDS011;42456;49.956;20.004;2024-01-25T07:11:26;8.80;;;2.50;;
56567;SDS011;42456;49.956;20.004;2024-01-25T07:13:53;10.00;;;2.50;;
56567;SDS011;42456;49.956;20.004;2024-01-25T07:16:20;10.00;;;3.50;;
56567;SDS011;42456;49.956;20.004;2024-01-25T07:18:48;10.60;;;2.60;;
56567;SDS011;42456;49.956;20.004;2024-01-25T07:21:17;7.50;;;2.50;;
56567;SDS011;42456;49.956;20.004;2024-01-25T07:23:43;9.20;;;2.70;;
56567;SDS011;42456;49.956;20.004;2024-01-25T07:26:15;12.70;;;3.40;;
56567;SDS011;42456;49.956;20.004;2024-01-25T07:28:43;11.50;;;2.70;;
56567;SDS011;42456;49.956;20.004;2024-01-25T07:31:10;11.60;;;2.70;;
56567;SDS011;42456;49.956;20.004;2024-01-25T07:33:37;8.30;;;2.40;;
56567;SDS011;42456;49.956;20.004;2024-01-25T07:36:05;7.60;;;2.60;;
56567;SDS011;42456;49.956;20.004;2024-01-25T07:38:32;13.00;;;3.00;;
56567;SDS011;42456;49.956;20.004;2024-01-25T07:40:59;7.30;;;2.40;;
56567;SDS011;42456;49.956;20.004;2024-01-25T07:43:25;12.00;;;3.50;;
56567;SDS011;42456;49.956;20.004;2024-01-25T07:45:53;12.40;;;2.70;;
56567;SDS011;42456;49.956;20.004;2024-01-25T07:48:20;9.60;;;2.70;;
56567;SDS011;42456;49.956;20.004;2024-01-25T07:50:47;12.90;;;3.20;;
56567;SDS011;42456;49.956;20.004;2024-01-25T07:53:15;12.90;;;4.00;;
56567;SDS011;42456;49.956;20.004;2024-01-25T07:55:42;5.30;;;2.50;;
56567;SDS011;42456;49.956;20.004;2024-01-25T07:58:09;12.00;;;2.80;;
56567;SDS011;42456;49.956;20.004;2024-01-25T08:00:37;7.60;;;2.90;;
56567;SDS011;42456;49.956;20.004;2024-01-25T08:03:04;10.30;;;3.00;;
56567;SDS011;42456;49.956;20.004;2024-01-25T08:05:31;13.00;;;3.00;;
56567;SDS011;42456;49.956;20.004;2024-01-25T08:08:10;10.60;;;3.60;;
56567;SDS011;42456;49.956;20.004;2024-01-25T08:10:38;14.40;;;3.20;;
56567;SDS011;42456;49.956;20.004;2024-01-25T08:13:05;9.80;;;3.00;;
56567;SDS011;42456;49.956;20.004;2024-01-25T08:15:33;10.60;;;2.70;;
56567;SDS011;42456;49.956;20.004;2024-01-25T08:18:01;9.40;;;3.30;;
56567;SDS011;42456;49.956;20.004;2024-01-25T08:20:29;8.80;;;3.00;;
56567;SDS011;42456;49.956;20.004;2024-01-25T08:22:57;10.90;;;2.70;;
56567;SDS011;42456;49.956;20.004;2024-01-25T08:25:25;11.30;;;3.50;;
56567;SDS011;42456;49.956;20.004;2024-01-25T08:27:53;7.70;;;3.10;;
56567;SDS011;42456;49.956;20.004;2024-01-25T08:30:20;6.90;;;3.10;;
56567;SDS011;42456;49.956;20.004;2024-01-25T08:32:47;7.90;;;3.10;;
56567;SDS011;42456;49.956;20.004;2024-01-25T08:35:14;9.00;;;3.30;;
56567;SDS011;42456;49.956;20.004;2024-01-25T08:37:41;9.30;;;3.10;;
56567;SDS011;42456;49.956;20.004;2024-01-25T08:40:08;8.90;;;3.30;;
56567;SDS011;42456;49.956;20.004;2024-01-25T08:42:36;8.90;;;3.00;;
56567;SDS011;42456;49.956;20.004;2024-01-25T08:45:04;14.80;;;4.20;;
56567;SDS011;42456;49.956;20.004;2024-01-25T08:47:34;11.40;;;3.90;;
56567;SDS011;42456;49.956;20.004;2024-01-25T08:50:01;11.70;;;3.60;;
56567;SDS011;42456;49.956;20.004;2024-01-25T08:52:30;12.90;;;3.70;;
56567;SDS011;42456;49.956;20.004;2024-01-25T08:54:57;15.50;;;4.90;;
56567;SDS011;42456;49.956;20.004;2024-01-25T08:57:24;10.90;;;3.60;;
56567;SDS011;42456;49.956;20.004;2024-01-25T08:59:51;12.10;;;3.20;;
56567;SDS011;42456;49.956;20.004;2024-01-25T09:02:19;9.60;;;3.20;;
56567;SDS011;42456;49.956;20.004;2024-01-25T09:04:49;9.90;;;3.10;;
56567;SDS011;42456;49.956;20.004;2024-01-25T09:07:17;10.40;;;3.10;;
56567;SDS011;42456;49.956;20.004;2024-01-25T09:09:44;15.20;;;3.50;;
56567;SDS011;42456;49.956;20.004;2024-01-25T09:12:11;9.10;;;3.50;;
56567;SDS011;42456;49.956;20.004;2024-01-25T09:14:39;14.00;;;3.80;;
56567;SDS011;42456;49.956;20.004;2024-01-25T09:17:07;12.20;;;3.80;;
56567;SDS011;42456;49.956;20.004;2024-01-25T09:19:34;12.80;;;3.80;;
56567;SDS011;42456;49.956;20.004;2024-01-25T09:22:02;10.90;;;4.30;;
56567;SDS011;42456;49.956;20.004;2024-01-25T09:24:31;11.70;;;2.90;;
56567;SDS011;42456;49.956;20.004;2024-01-25T09:27:00;13.40;;;4.20;;
56567;SDS011;42456;49.956;20.004;2024-01-25T09:29:27;11.30;;;3.40;;
56567;SDS011;42456;49.956;20.004;2024-01-25T09:31:54;14.10;;;4.00;;
56567;SDS011;42456;49.956;20.004;2024-01-25T09:34:24;9.90;;;2.70;;
56567;SDS011;42456;49.956;20.004;2024-01-25T09:36:53;11.70;;;3.70;;
56567;SDS011;42456;49.956;20.004;2024-01-25T09:39:20;14.40;;;4.20;;
56567;SDS011;42456;49.956;20.004;2024-01-25T09:41:48;13.70;;;4.30;;
56567;SDS011;42456;49.956;20.004;2024-01-25T09:44:15;10.60;;;3.50;;
56567;SDS011;42456;49.956;20.004;2024-01-25T09:46:44;8.50;;;3.70;;
56567;SDS011;42456;49.956;20.004;2024-01-25T09:49:15;10.60;;;3.40;;
56567;SDS011;42456;49.956;20.004;2024-01-25T09:51:43;14.40;;;3.60;;
56567;SDS011;42456;49.956;20.004;2024-01-25T09:54:11;7.60;;;2.90;;
56567;SDS011;42456;49.956;20.004;2024-01-25T09:56:38;7.50;;;2.80;;
56567;SDS011;42456;49.956;20.004;2024-01-25T09:59:08;9.80;;;3.20;;
56567;SDS011;42456;49.956;20.004;2024-01-25T10:01:35;11.10;;;3.70;;
56567;SDS011;42456;49.956;20.004;2024-01-25T10:04:05;10.00;;;3.20;;
56567;SDS011;42456;49.956;20.004;2024-01-25T10:06:34;10.40;;;3.60;;
56567;SDS011;42456;49.956;20.004;2024-01-25T10:09:01;15.20;;;3.80;;
56567;SDS011;42456;49.956;20.004;2024-01-25T10:11:30;11.70;;;3.10;;
56567;SDS011;42456;49.956;20.004;2024-01-25T10:14:07;14.30;;;3.90;;
56567;SDS011;42456;49.956;20.004;2024-01-25T10:16:35;15.50;;;4.30;;
56567;SDS011;42456;49.956;20.004;2024-01-25T10:19:02;15.90;;;4.20;;
56567;SDS011;42456;49.956;20.004;2024-01-25T10:21:35;12.80;;;3.60;;
56567;SDS011;42456;49.956;20.004;2024-01-25T10:24:05;12.50;;;3.50;;
56567;SDS011;42456;49.956;20.004;2024-01-25T10:29:01;11.50;;;2.90;;
56567;SDS011;42456;49.956;20.004;2024-01-25T10:31:30;8.70;;;2.90;;
56567;SDS011;42456;49.956;20.004;2024-01-25T10:34:02;10.70;;;2.80;;
56567;SDS011;42456;49.956;20.004;2024-01-25T10:36:29;8.70;;;2.90;;
56567;SDS011;42456;49.956;20.004;2024-01-25T10:38:58;9.70;;;2.90;;
56567;SDS011;42456;49.956;20.004;2024-01-25T10:41:27;12.40;;;3.40;;
56567;SDS011;42456;49.956;20.004;2024-01-25T10:43:55;10.40;;;3.10;;
56567;SDS011;42456;49.956;20.004;2024-01-25T10:46:22;11.90;;;3.40;;
56567;SDS011;42456;49.956;20.004;2024-01-25T10:48:49;9.20;;;2.80;;
56567;SDS011;42456;49.956;20.004;2024-01-25T10:51:18;10.20;;;3.20;;
56567;SDS011;42456;49.956;20.004;2024-01-25T10:53:46;11.10;;;3.10;;
56567;SDS011;42456;49.956;20.004;2024-01-25T10:56:14;11.60;;;3.00;;
56567;SDS011;42456;49.956;20.004;2024-01-25T10:58:41;12.40;;;3.00;;
56567;SDS011;42456;49.956;20.004;2024-01-25T11:01:09;9.20;;;3.20;;
56567;SDS011;42456;49.956;20.004;2024-01-25T11:03:42;8.70;;;2.90;;
56567;SDS011;42456;49.956;20.004;2024-01-25T11:06:13;11.60;;;3.60;;
56567;SDS011;42456;49.956;20.004;2024-01-25T11:08:41;12.30;;;2.90;;
56567;SDS011;42456;49.956;20.004;2024-01-25T11:11:10;10.20;;;3.30;;
56567;SDS011;42456;49.956;20.004;2024-01-25T11:13:40;9.90;;;3.10;;
56567;SDS011;42456;49.956;20.004;2024-01-25T11:16:15;10.20;;;3.40;;
56567;SDS011;42456;49.956;20.004;2024-01-25T11:18:55;13.60;;;3.80;;
56567;SDS011;42456;49.956;20.004;2024-01-25T11:21:37;12.00;;;3.50;;
56567;SDS011;42456;49.956;20.004;2024-01-25T11:24:05;8.10;;;2.60;;
56567;SDS011;42456;49.956;20.004;2024-01-25T11:26:32;14.10;;;4.00;;
56567;SDS011;42456;49.956;20.004;2024-01-25T11:28:59;11.80;;;3.90;;
56567;SDS011;42456;49.956;20.004;2024-01-25T11:31:27;16.30;;;4.70;;
56567;SDS011;42456;49.956;20.004;2024-01-25T11:33:59;13.80;;;3.90;;
56567;SDS011;42456;49.956;20.004;2024-01-25T11:36:27;9.90;;;2.80;;
56567;SDS011;42456;49.956;20.004;2024-01-25T11:38:55;17.30;;;3.50;;
56567;SDS011;42456;49.956;20.004;2024-01-25T11:41:24;8.70;;;2.70;;
56567;SDS011;42456;49.956;20.004;2024-01-25T11:43:52;7.90;;;3.00;;
56567;SDS011;42456;49.956;20.004;2024-01-25T11:46:19;10.10;;;2.50;;
56567;SDS011;42456;49.956;20.004;2024-01-25T11:48:47;12.60;;;3.30;;
56567;SDS011;42456;49.956;20.004;2024-01-25T11:51:14;13.80;;;3.50;;
56567;SDS011;42456;49.956;20.004;2024-01-25T11:53:41;12.40;;;3.00;;
56567;SDS011;42456;49.956;20.004;2024-01-25T11:56:09;16.20;;;3.70;;
56567;SDS011;42456;49.956;20.004;2024-01-25T11:58:39;12.10;;;3.60;;
56567;SDS011;42456;49.956;20.004;2024-01-25T12:01:08;8.40;;;2.80;;
56567;SDS011;42456;49.956;20.004;2024-01-25T12:03:36;14.10;;;3.40;;
56567;SDS011;42456;49.956;20.004;2024-01-25T12:06:04;12.40;;;3.00;;
56567;SDS011;42456;49.956;20.004;2024-01-25T12:08:32;13.60;;;3.10;;
56567;SDS011;42456;49.956;20.004;2024-01-25T12:11:05;12.90;;;3.40;;
56567;SDS011;42456;49.956;20.004;2024-01-25T12:13:34;10.80;;;2.90;;
56567;SDS011;42456;49.956;20.004;2024-01-25T12:16:02;12.10;;;3.90;;
56567;SDS011;42456;49.956;20.004;2024-01-25T12:18:30;11.80;;;3.80;;
56567;SDS011;42456;49.956;20.004;2024-01-25T12:21:02;7.80;;;2.80;;
56567;SDS011;42456;49.956;20.004;2024-01-25T12:23:34;9.00;;;3.00;;
56567;SDS011;42456;49.956;20.004;2024-01-25T12:26:04;15.30;;;3.60;;
56567;SDS011;42456;49.956;20.004;2024-01-25T12:28:33;10.70;;;3.10;;
56567;SDS011;42456;49.956;20.004;2024-01-25T12:31:02;14.00;;;3.70;;
56567;SDS011;42456;49.956;20.004;2024-01-25T12:33:30;7.40;;;2.90;;
56567;SDS011;42456;49.956;20.004;2024-01-25T12:35:59;9.90;;;2.80;;
56567;SDS011;42456;49.956;20.004;2024-01-25T12:38:28;12.60;;;3.60;;
56567;SDS011;42456;49.956;20.004;2024-01-25T12:43:25;15.30;;;4.10;;
56567;SDS011;42456;49.956;20.004;2024-01-25T12:45:53;10.70;;;3.60;;
56567;SDS011;42456;49.956;20.004;2024-01-25T12:48:29;9.80;;;3.30;;
56567;SDS011;42456;49.956;20.004;2024-01-25T12:50:56;11.40;;;3.80;;
56567;SDS011;42456;49.956;20.004;2024-01-25T12:53:23;14.90;;;3.80;;
56567;SDS011;42456;49.956;20.004;2024-01-25T12:55:51;11.90;;;3.10;;
56567;SDS011;42456;49.956;20.004;2024-01-25T12:58:18;14.60;;;3.60;;
56567;SDS011;42456;49.956;20.004;2024-01-25T13:00:45;12.50;;;3.20;;
56567;SDS011;42456;49.956;20.004;2024-01-25T13:03:13;12.50;;;3.50;;
56567;SDS011;42456;49.956;20.004;2024-01-25T13:05:41;10.20;;;3.60;;
56567;SDS011;42456;49.956;20.004;2024-01-25T13:08:08;9.40;;;2.90;;
56567;SDS011;42456;49.956;20.004;2024-01-25T13:10:35;11.60;;;3.40;;
56567;SDS011;42456;49.956;20.004;2024-01-25T13:13:02;11.90;;;3.30;;
56567;SDS011;42456;49.956;20.004;2024-01-25T13:15:29;11.00;;;3.20;;
56567;SDS011;42456;49.956;20.004;2024-01-25T13:17:56;11.20;;;2.90;;
56567;SDS011;42456;49.956;20.004;2024-01-25T13:20:24;7.80;;;2.90;;
56567;SDS011;42456;49.956;20.004;2024-01-25T13:22:50;11.20;;;3.40;;
56567;SDS011;42456;49.956;20.004;2024-01-25T13:25:17;12.00;;;3.30;;
56567;SDS011;42456;49.956;20.004;2024-01-25T13:27:44;8.20;;;2.90;;
56567;SDS011;42456;49.956;20.004;2024-01-25T13:30:12;9.10;;;2.80;;
56567;SDS011;42456;49.956;20.004;2024-01-25T13:32:39;7.20;;;2.80;;
56567;SDS011;42456;49.956;20.004;2024-01-25T13:35:07;10.10;;;3.10;;
56567;SDS011;42456;49.956;20.004;2024-01-25T13:37:34;11.30;;;2.90;;
56567;SDS011;42456;49.956;20.004;2024-01-25T13:40:01;10.40;;;3.30;;
56567;SDS011;42456;49.956;20.004;2024-01-25T13:42:30;9.50;;;3.10;;
56567;SDS011;42456;49.956;20.004;2024-01-25T13:44:58;11.90;;;3.10;;
56567;SDS011;42456;49.956;20.004;2024-01-25T13:47:25;10.80;;;3.20;;
56567;SDS011;42456;49.956;20.004;2024-01-25T13:49:51;12.10;;;3.30;;
56567;SDS011;42456;49.956;20.004;2024-01-25T13:52:19;10.40;;;3.10;;
56567;SDS011;42456;49.956;20.004;2024-01-25T13:54:47;9.10;;;3.20;;
56567;SDS011;42456;49.956;20.004;2024-01-25T13:57:17;10.40;;;3.10;;
56567;SDS011;42456;49.956;20.004;2024-01-25T13:59:44;10.40;;;3.80;;
56567;SDS011;42456;49.956;20.004;2024-01-25T14:02:11;13.10;;;3.30;;
56567;SDS011;42456;49.956;20.004;2024-01-25T14:04:38;12.00;;;3.50;;
56567;SDS011;42456;49.956;20.004;2024-01-25T14:07:07;9.10;;;3.30;;
56567;SDS011;42456;49.956;20.004;2024-01-25T14:09:34;12.40;;;3.40;;
56567;SDS011;42456;49.956;20.004;2024-01-25T14:12:02;12.50;;;3.90;;
56567;SDS011;42456;49.956;20.004;2024-01-25T14:14:29;8.60;;;3.10;;
56567;SDS011;42456;49.956;20.004;2024-01-25T14:16:56;8.30;;;3.10;;
56567;SDS011;42456;49.956;20.004;2024-01-25T14:19:23;12.60;;;3.30;;
56567;SDS011;42456;49.956;20.004;2024-01-25T14:21:50;12.00;;;3.50;;
56567;SDS011;42456;49.956;20.004;2024-01-25T14:24:37;9.70;;;3.10;;
56567;SDS011;42456;49.956;20.004;2024-01-25T14:27:04;13.40;;;4.10;;
56567;SDS011;42456;49.956;20.004;2024-01-25T14:29:32;11.60;;;3.50;;
56567;SDS011;42456;49.956;20.004;2024-01-25T14:31:59;20.50;;;7.60;;
56567;SDS011;42456;49.956;20.004;2024-01-25T14:34:27;14.20;;;5.20;;
56567;SDS011;42456;49.956;20.004;2024-01-25T14:36:54;12.40;;;3.80;;
56567;SDS011;42456;49.956;20.004;2024-01-25T14:39:21;9.60;;;3.80;;
56567;SDS011;42456;49.956;20.004;2024-01-25T14:41:48;9.00;;;3.30;;